createdAt,value
2018-02-14T00:00:09.778Z,78.00
2018-02-14T00:01:09.730Z,77.53
2018-02-14T00:02:09.719Z,77.06
2018-02-14T00:03:09.709Z,76.96
2018-02-14T00:04:09.700Z,76.68
2018-02-14T00:05:09.690Z,76.30
2018-02-14T00:06:09.680Z,76.58
2018-02-14T00:07:09.669Z,76.68
2018-02-14T00:08:09.660Z,76.40
2018-02-14T00:09:09.651Z,76.87
2018-02-14T00:10:09.640Z,76.77
2018-02-14T00:11:09.629Z,77.15
2018-02-14T00:12:09.624Z,77.62
2018-02-14T00:13:09.611Z,77.15
2018-02-14T00:14:09.600Z,77.53
2018-02-14T00:15:09.591Z,77.15
2018-02-14T00:16:09.581Z,76.87
2018-02-14T00:17:09.571Z,77.15
2018-02-14T00:18:09.561Z,76.58
2018-02-14T00:19:09.550Z,76.21
2018-02-14T00:20:09.543Z,76.68
2018-02-14T00:21:09.532Z,76.58
2018-02-14T00:22:09.520Z,76.68
2018-02-14T00:23:09.510Z,76.87
2018-02-14T00:24:09.504Z,77.25
2018-02-14T00:25:09.492Z,77.34
2018-02-14T00:26:09.481Z,77.81
2018-02-14T00:27:09.471Z,77.44
2018-02-14T00:28:09.461Z,77.62
2018-02-14T00:29:09.453Z,77.91
2018-02-14T00:30:09.442Z,77.81
2018-02-14T00:31:09.431Z,77.44
2018-02-14T00:32:09.422Z,77.62
2018-02-14T00:33:09.412Z,77.06
2018-02-14T00:34:09.402Z,76.96
2018-02-14T00:35:09.392Z,76.87
2018-02-14T00:36:09.382Z,76.68
2018-02-14T00:37:09.372Z,77.06
2018-02-14T00:38:09.362Z,76.87
2018-02-14T00:39:09.352Z,76.87
2018-02-14T00:40:09.344Z,77.34
2018-02-14T00:41:09.333Z,77.81
2018-02-14T00:42:09.323Z,77.15
2018-02-14T00:43:09.313Z,76.96
2018-02-14T00:44:09.305Z,76.87
2018-02-14T00:45:09.292Z,77.25
2018-02-14T00:46:09.283Z,77.25
2018-02-14T00:47:09.274Z,77.91
2018-02-14T00:48:09.264Z,78.09
2018-02-14T00:49:09.255Z,78.09
2018-02-14T00:50:09.243Z,78.28
2018-02-14T00:51:09.235Z,78.56
2018-02-14T00:52:09.224Z,78.56
2018-02-14T00:53:09.214Z,78.56
2018-02-14T00:54:09.202Z,78.94
2018-02-14T00:55:09.193Z,79.32
2018-02-14T00:56:09.184Z,79.41
2018-02-14T00:57:09.175Z,78.85
2018-02-14T00:58:09.163Z,78.56
2018-02-14T00:59:09.154Z,78.47
2018-02-14T01:00:09.148Z,78.28
2018-02-14T01:01:09.137Z,78.66
2018-02-14T01:02:09.123Z,78.75
2018-02-14T01:03:09.113Z,78.47
2018-02-14T01:04:09.103Z,78.28
2018-02-14T01:05:09.094Z,77.72
2018-02-14T01:06:09.084Z,77.34
2018-02-14T01:08:09.064Z,76.68
2018-02-14T01:09:09.054Z,77.62
2018-02-14T01:10:09.043Z,77.25
2018-02-14T01:11:09.033Z,77.91
2018-02-14T01:12:09.024Z,78.00
2018-02-14T01:13:09.013Z,78.47
2018-02-14T01:14:09.002Z,78.28
2018-02-14T01:15:08.992Z,78.47
2018-02-14T01:16:08.983Z,78.56
2018-02-14T01:17:08.974Z,78.56
2018-02-14T01:18:08.963Z,78.47
2018-02-14T01:19:08.954Z,78.19
2018-02-14T01:20:08.942Z,78.38
2018-02-14T01:21:08.932Z,78.19
2018-02-14T01:22:08.921Z,78.19
2018-02-14T01:23:08.912Z,77.81
2018-02-14T01:24:08.903Z,78.19
2018-02-14T01:25:08.892Z,78.19
2018-02-14T01:26:08.881Z,77.81
2018-02-14T01:27:08.874Z,78.19
2018-02-14T01:28:08.861Z,78.19
2018-02-14T01:29:08.851Z,78.66
2018-02-14T01:30:08.840Z,77.53
2018-02-14T01:31:08.831Z,78.09
2018-02-14T01:32:08.820Z,78.19
2018-02-14T01:33:08.811Z,78.28
2018-02-14T01:34:08.799Z,78.56
2018-02-14T01:35:08.790Z,77.30
2018-02-14T01:36:08.780Z,78.00
2018-02-14T01:37:08.771Z,78.15
2018-02-14T01:38:08.759Z,77.39
2018-02-14T01:39:08.749Z,77.30
2018-02-14T01:40:08.740Z,77.30
2018-02-14T01:41:08.729Z,78.24
2018-02-14T01:42:08.718Z,77.20
2018-02-14T01:43:08.708Z,77.77
2018-02-14T01:44:08.700Z,77.96
2018-02-14T01:45:08.688Z,78.24
2018-02-14T01:46:08.679Z,78.24
2018-02-14T01:47:08.668Z,78.24
2018-02-14T01:48:08.658Z,78.24
2018-02-14T01:49:08.647Z,78.43
2018-02-14T01:50:08.636Z,78.62
2018-02-14T01:51:08.626Z,79.09
2018-02-14T01:52:08.616Z,78.62
2018-02-14T01:53:08.608Z,78.62
2018-02-14T01:54:08.595Z,78.71
2018-02-14T01:55:08.584Z,78.52
2018-02-14T01:56:08.575Z,78.43
2018-02-14T01:57:08.569Z,77.77
2018-02-14T01:58:08.554Z,78.15
2018-02-14T01:59:08.543Z,77.86
2018-02-14T02:00:08.534Z,78.15
2018-02-14T02:01:08.523Z,78.52
2018-02-14T02:02:08.512Z,77.96
2018-02-14T02:03:08.502Z,77.96
2018-02-14T02:04:08.491Z,77.49
2018-02-14T02:05:08.482Z,77.30
2018-02-14T02:06:08.470Z,77.49
2018-02-14T02:07:08.459Z,77.67
2018-02-14T02:08:08.450Z,78.24
2018-02-14T02:09:08.440Z,77.96
2018-02-14T02:10:08.430Z,77.96
2018-02-14T02:11:08.418Z,78.43
2018-02-14T02:12:08.409Z,78.15
2018-02-14T02:13:08.398Z,78.71
2018-02-14T02:14:08.388Z,78.24
2018-02-14T02:15:08.377Z,78.24
2018-02-14T02:16:08.369Z,79.00
2018-02-14T02:17:08.357Z,78.90
2018-02-14T02:18:08.345Z,79.09
2018-02-14T02:19:08.335Z,78.52
2018-02-14T02:20:08.325Z,79.00
2018-02-14T02:21:08.315Z,78.90
2018-02-14T02:22:08.303Z,78.52
2018-02-14T02:23:08.293Z,78.52
2018-02-14T02:24:08.283Z,78.52
2018-02-14T02:25:08.274Z,79.19
2018-02-14T02:26:08.263Z,79.09
2018-02-14T02:27:08.251Z,78.62
2018-02-14T02:28:08.242Z,78.62
2018-02-14T02:29:08.230Z,78.52
2018-02-14T02:30:08.220Z,78.43
2018-02-14T02:31:08.209Z,78.15
2018-02-14T02:32:08.199Z,78.24
2018-02-14T02:33:08.190Z,77.67
2018-02-14T02:34:08.177Z,77.20
2018-02-14T02:35:08.196Z,76.82
2018-02-14T02:36:08.157Z,76.40
2018-02-14T02:37:08.152Z,76.49
2018-02-14T02:38:08.136Z,76.11
2018-02-14T02:39:08.127Z,75.64
2018-02-14T02:40:08.116Z,76.02
2018-02-14T02:41:08.106Z,75.54
2018-02-14T02:42:08.093Z,75.54
2018-02-14T02:43:08.084Z,75.07
2018-02-14T02:44:08.075Z,74.98
2018-02-14T02:45:08.066Z,74.88
2018-02-14T02:46:08.052Z,74.60
2018-02-14T02:47:08.045Z,74.88
2018-02-14T02:48:08.033Z,73.94
2018-02-14T02:49:08.026Z,74.13
2018-02-14T02:50:08.012Z,74.13
2018-02-14T02:51:08.001Z,73.94
2018-02-14T02:52:07.992Z,74.41
2018-02-14T02:53:07.981Z,74.69
2018-02-14T02:54:07.970Z,74.79
2018-02-14T02:55:07.960Z,74.19
2018-02-14T02:56:07.952Z,74.85
2018-02-14T02:57:07.944Z,75.32
2018-02-14T02:58:07.930Z,74.76
2018-02-14T02:59:07.918Z,74.04
2018-02-14T03:00:07.909Z,74.04
2018-02-14T03:01:07.900Z,73.57
2018-02-14T03:02:07.888Z,73.28
2018-02-14T03:03:07.877Z,73.28
2018-02-14T03:04:07.868Z,73.10
2018-02-14T03:05:07.858Z,73.10
2018-02-14T03:06:07.846Z,73.00
2018-02-14T03:07:07.836Z,73.10
2018-02-14T03:08:07.827Z,72.53
2018-02-14T03:09:07.817Z,72.91
2018-02-14T03:10:07.809Z,72.72
2018-02-14T03:11:07.797Z,72.53
2018-02-14T03:12:07.786Z,72.62
2018-02-14T03:13:07.776Z,71.77
2018-02-14T03:14:07.764Z,72.15
2018-02-14T03:15:07.757Z,72.15
2018-02-14T03:16:07.744Z,72.44
2018-02-14T03:17:07.735Z,72.44
2018-02-14T03:18:07.725Z,72.30
2018-02-14T03:19:07.715Z,72.77
2018-02-14T03:20:07.704Z,72.96
2018-02-14T03:21:07.698Z,73.72
2018-02-14T03:22:07.683Z,73.06
2018-02-14T03:23:07.672Z,73.15
2018-02-14T03:24:07.664Z,73.91
2018-02-14T03:25:07.653Z,74.57
2018-02-14T03:26:07.643Z,74.47
2018-02-14T03:27:07.632Z,74.38
2018-02-14T03:28:07.622Z,74.10
2018-02-14T03:29:07.612Z,73.72
2018-02-14T03:30:07.602Z,73.34
2018-02-14T03:31:07.592Z,73.34
2018-02-14T03:32:07.581Z,73.53
2018-02-14T03:33:07.570Z,74.10
2018-02-14T03:34:07.561Z,74.28
2018-02-14T03:35:07.549Z,74.10
2018-02-14T03:36:07.539Z,74.47
2018-02-14T03:37:07.529Z,74.66
2018-02-14T03:38:07.519Z,73.91
2018-02-14T03:39:07.509Z,74.00
2018-02-14T03:40:07.499Z,73.91
2018-02-14T03:41:07.486Z,73.81
2018-02-14T03:42:07.476Z,73.34
2018-02-14T03:43:07.467Z,73.53
2018-02-14T03:44:07.457Z,73.62
2018-02-14T03:45:07.446Z,74.38
2018-02-14T03:46:07.434Z,74.66
2018-02-14T03:47:07.425Z,74.66
2018-02-14T03:48:07.414Z,74.85
2018-02-14T03:49:07.405Z,74.47
2018-02-14T03:50:07.395Z,74.19
2018-02-14T03:51:07.382Z,74.00
2018-02-14T03:52:07.373Z,73.34
2018-02-14T03:53:07.361Z,73.15
2018-02-14T03:54:07.352Z,73.25
2018-02-14T03:55:07.342Z,74.00
2018-02-14T03:56:07.331Z,74.10
2018-02-14T03:57:07.326Z,73.91
2018-02-14T03:58:07.309Z,73.25
2018-02-14T03:59:07.298Z,73.72
2018-02-14T04:00:07.290Z,73.43
2018-02-14T04:01:07.278Z,73.34
2018-02-14T04:02:07.267Z,73.72
2018-02-14T04:03:07.258Z,73.15
2018-02-14T04:04:07.248Z,73.06
2018-02-14T04:05:07.237Z,72.96
2018-02-14T04:06:07.226Z,72.87
2018-02-14T04:07:07.216Z,72.58
2018-02-14T04:08:07.205Z,73.06
2018-02-14T04:09:07.194Z,73.25
2018-02-14T04:10:07.184Z,73.53
2018-02-14T04:11:07.175Z,73.25
2018-02-14T04:12:07.164Z,72.77
2018-02-14T04:13:07.155Z,73.06
2018-02-14T04:14:07.142Z,72.87
2018-02-14T04:15:07.132Z,72.87
2018-02-14T04:16:07.161Z,72.96
2018-02-14T04:17:07.112Z,73.25
2018-02-14T04:18:07.104Z,72.96
2018-02-14T04:19:07.091Z,73.06
2018-02-14T04:20:07.080Z,73.06
2018-02-14T04:21:07.070Z,72.68
2018-02-14T04:22:07.062Z,72.96
2018-02-14T04:23:07.049Z,72.11
2018-02-14T04:24:07.039Z,72.11
2018-02-14T04:25:07.036Z,72.58
2018-02-14T04:26:07.019Z,71.92
2018-02-14T04:27:07.011Z,71.92
2018-02-14T04:28:06.997Z,71.55
2018-02-14T04:29:06.988Z,71.73
2018-02-14T04:30:06.978Z,71.26
2018-02-14T04:31:06.967Z,71.92
2018-02-14T04:32:06.957Z,70.98
2018-02-14T04:33:06.951Z,70.89
2018-02-14T04:34:06.935Z,70.79
2018-02-14T04:35:06.926Z,70.70
2018-02-14T04:36:06.915Z,71.17
2018-02-14T04:37:06.905Z,71.55
2018-02-14T04:38:06.895Z,71.45
2018-02-14T04:39:06.883Z,71.36
2018-02-14T04:40:06.873Z,72.02
2018-02-14T04:41:06.863Z,71.55
2018-02-14T04:42:06.853Z,71.83
2018-02-14T04:43:06.842Z,72.11
2018-02-14T04:44:06.831Z,73.15
2018-02-14T04:45:06.820Z,73.06
2018-02-14T04:46:06.810Z,73.06
2018-02-14T04:47:06.800Z,72.87
2018-02-14T04:48:06.789Z,72.58
2018-02-14T04:49:06.780Z,72.87
2018-02-14T04:50:06.768Z,72.68
2018-02-14T04:51:06.758Z,73.15
2018-02-14T04:52:06.748Z,72.87
2018-02-14T04:53:06.738Z,72.96
2018-02-14T04:54:06.726Z,72.87
2018-02-14T04:55:06.718Z,72.87
2018-02-14T04:56:06.707Z,73.34
2018-02-14T04:57:06.696Z,73.53
2018-02-14T04:58:06.685Z,73.43
2018-02-14T04:59:06.676Z,73.53
2018-02-14T05:00:06.664Z,73.53
2018-02-14T05:01:06.654Z,74.19
2018-02-14T05:02:06.643Z,73.91
2018-02-14T05:03:06.634Z,74.00
2018-02-14T05:04:06.623Z,73.91
2018-02-14T05:05:06.615Z,74.47
2018-02-14T05:06:06.600Z,74.10
2018-02-14T05:07:06.591Z,74.19
2018-02-14T05:08:06.580Z,74.38
2018-02-14T05:09:06.571Z,74.66
2018-02-14T05:10:06.561Z,74.47
2018-02-14T05:11:06.549Z,74.47
2018-02-14T05:12:06.538Z,74.66
2018-02-14T05:13:06.527Z,74.00
2018-02-14T05:14:06.516Z,73.81
2018-02-14T05:15:06.508Z,73.91
2018-02-14T05:16:06.496Z,74.38
2018-02-14T05:17:06.485Z,74.57
2018-02-14T05:18:06.475Z,74.38
2018-02-14T05:19:06.465Z,73.91
2018-02-14T05:20:06.454Z,74.76
2018-02-14T05:21:06.443Z,74.00
2018-02-14T05:22:06.434Z,74.19
2018-02-14T05:23:06.423Z,73.91
2018-02-14T05:24:06.412Z,74.28
2018-02-14T05:25:06.401Z,74.57
2018-02-14T05:26:06.391Z,74.19
2018-02-14T05:27:06.380Z,73.53
2018-02-14T05:28:06.370Z,72.68
2018-02-14T05:29:06.362Z,72.58
2018-02-14T05:30:06.391Z,72.68
2018-02-14T05:31:06.339Z,72.21
2018-02-14T05:32:06.327Z,71.92
2018-02-14T05:33:06.317Z,71.73
2018-02-14T05:34:06.306Z,70.98
2018-02-14T05:35:06.295Z,71.92
2018-02-14T05:36:06.286Z,71.83
2018-02-14T05:37:06.275Z,72.21
2018-02-14T05:38:06.264Z,71.73
2018-02-14T05:39:06.254Z,72.68
2018-02-14T05:40:06.243Z,72.68
2018-02-14T05:41:06.233Z,73.15
2018-02-14T05:42:06.223Z,72.58
2018-02-14T05:43:06.215Z,73.06
2018-02-14T05:44:06.201Z,73.15
2018-02-14T05:45:06.191Z,73.15
2018-02-14T05:46:06.183Z,73.06
2018-02-14T05:47:06.170Z,73.15
2018-02-14T05:48:06.159Z,73.15
2018-02-14T05:49:06.149Z,72.87
2018-02-14T05:50:06.138Z,73.15
2018-02-14T05:51:06.127Z,73.72
2018-02-14T05:52:06.117Z,73.72
2018-02-14T05:53:06.108Z,73.72
2018-02-14T05:54:06.095Z,73.06
2018-02-14T05:55:06.084Z,72.96
2018-02-14T05:56:06.074Z,72.58
2018-02-14T05:57:06.065Z,72.96
2018-02-14T05:58:06.052Z,72.96
2018-02-14T05:59:06.044Z,73.43
2018-02-14T06:00:06.032Z,73.72
2018-02-14T06:01:06.022Z,74.00
2018-02-14T06:02:06.012Z,74.10
2018-02-14T06:03:06.000Z,74.00
2018-02-14T06:04:05.990Z,74.57
2018-02-14T06:05:05.981Z,74.38
2018-02-14T06:06:05.968Z,74.57
2018-02-14T06:07:05.958Z,74.38
2018-02-14T06:08:05.948Z,74.47
2018-02-14T06:09:05.939Z,74.00
2018-02-14T06:10:05.926Z,74.10
2018-02-14T06:11:05.916Z,73.91
2018-02-14T06:12:05.905Z,73.72
2018-02-14T06:13:05.896Z,73.34
2018-02-14T06:14:05.883Z,73.34
2018-02-14T06:15:05.873Z,73.06
2018-02-14T06:16:05.863Z,72.96
2018-02-14T06:17:05.853Z,72.96
2018-02-14T06:18:05.841Z,72.87
2018-02-14T06:19:05.831Z,73.06
2018-02-14T06:20:05.821Z,72.77
2018-02-14T06:21:05.811Z,72.77
2018-02-14T06:22:05.798Z,72.58
2018-02-14T06:23:05.788Z,72.40
2018-02-14T06:24:05.784Z,72.30
2018-02-14T06:25:05.772Z,71.73
2018-02-14T06:26:05.757Z,72.30
2018-02-14T06:27:05.746Z,72.96
2018-02-14T06:28:05.737Z,72.87
2018-02-14T06:29:05.727Z,72.96
2018-02-14T06:30:05.715Z,73.15
2018-02-14T06:31:05.707Z,73.53
2018-02-14T06:32:05.693Z,73.53
2018-02-14T06:33:05.682Z,74.00
2018-02-14T06:34:05.672Z,73.72
2018-02-14T06:35:05.661Z,73.43
2018-02-14T06:36:05.651Z,73.34
2018-02-14T06:37:05.640Z,72.96
2018-02-14T06:38:05.628Z,72.96
2018-02-14T06:39:05.619Z,72.77
2018-02-14T06:40:05.608Z,72.58
2018-02-14T06:41:05.598Z,72.30
2018-02-14T06:42:05.587Z,72.02
2018-02-14T06:43:05.576Z,72.30
2018-02-14T06:44:05.567Z,72.68
2018-02-14T06:45:05.556Z,73.06
2018-02-14T06:46:05.544Z,72.96
2018-02-14T06:47:05.535Z,72.58
2018-02-14T06:48:05.523Z,72.77
2018-02-14T06:49:05.514Z,72.40
2018-02-14T06:50:05.501Z,73.25
2018-02-14T06:51:05.491Z,72.49
2018-02-14T06:52:05.482Z,71.45
2018-02-14T06:53:05.471Z,69.32
2018-02-14T06:54:05.460Z,68.47
2018-02-14T06:55:05.451Z,67.62
2018-02-14T06:56:05.440Z,66.58
2018-02-14T06:57:05.433Z,66.58
2018-02-14T06:58:05.419Z,65.36
2018-02-14T06:59:05.411Z,64.32
2018-02-14T07:00:05.403Z,63.95
2018-02-14T07:01:05.394Z,64.32
2018-02-14T07:02:05.382Z,63.76
2018-02-14T07:03:05.372Z,63.95
2018-02-14T07:04:05.364Z,64.04
2018-02-14T07:05:05.359Z,63.76
2018-02-14T07:06:05.347Z,63.76
2018-02-14T07:07:05.336Z,63.76
2018-02-14T07:08:05.325Z,64.14
2018-02-14T07:09:05.317Z,64.89
2018-02-14T07:10:05.306Z,64.98
2018-02-14T07:11:05.297Z,64.89
2018-02-14T07:12:05.287Z,65.73
2018-02-14T07:13:05.278Z,66.40
2018-02-14T07:14:05.268Z,66.21
2018-02-14T07:15:05.259Z,66.40
2018-02-14T07:16:05.248Z,65.73
2018-02-14T07:17:05.239Z,65.92
2018-02-14T07:18:05.233Z,66.40
2018-02-14T07:19:05.220Z,66.49
2018-02-14T07:20:05.215Z,66.21
2018-02-14T07:21:05.203Z,66.49
2018-02-14T07:22:05.193Z,66.58
2018-02-14T07:23:05.182Z,66.30
2018-02-14T07:24:05.172Z,67.34
2018-02-14T07:25:05.163Z,66.58
2018-02-14T07:26:05.152Z,66.21
2018-02-14T07:27:05.144Z,65.45
2018-02-14T07:28:05.133Z,65.36
2018-02-14T07:29:05.125Z,64.70
2018-02-14T07:30:05.115Z,64.32
2018-02-14T07:31:05.108Z,63.60
2018-02-14T07:32:05.099Z,62.56
2018-02-14T07:33:05.091Z,62.18
2018-02-14T07:34:05.081Z,61.71
2018-02-14T07:35:05.073Z,61.24
2018-02-14T07:36:05.065Z,60.61
2018-02-14T07:37:05.057Z,60.42
2018-02-14T07:38:05.049Z,59.29
2018-02-14T07:39:05.048Z,57.43
2018-02-14T07:40:05.036Z,55.47
2018-02-14T07:41:05.029Z,53.58
2018-02-14T07:42:05.027Z,51.43
2018-02-14T07:43:05.017Z,50.30
2018-02-14T07:44:05.009Z,48.91
2018-02-14T07:45:05.004Z,48.03
2018-02-14T07:46:05.026Z,47.66
2018-02-14T07:47:04.990Z,48.29
2018-02-14T07:48:04.986Z,49.14
2018-02-14T07:49:04.979Z,50.37
2018-02-14T07:50:04.972Z,50.94
2018-02-14T07:51:04.966Z,51.20
2018-02-14T07:52:04.961Z,51.69
2018-02-14T07:53:04.956Z,52.07
2018-02-14T07:54:04.951Z,51.88
2018-02-14T07:55:04.946Z,50.30
2018-02-14T07:56:04.942Z,49.16
2018-02-14T07:57:04.938Z,47.85
2018-02-14T07:58:04.932Z,47.11
2018-02-14T07:59:04.930Z,46.26
2018-02-14T08:00:04.928Z,45.12
2018-02-14T08:01:04.925Z,44.65
2018-02-14T08:02:04.921Z,44.56
2018-02-14T08:03:04.919Z,44.46
2018-02-14T08:04:04.918Z,44.74
2018-02-14T08:05:04.916Z,44.39
2018-02-14T08:06:04.913Z,43.54
2018-02-14T08:07:04.911Z,43.33
2018-02-14T08:08:04.910Z,43.82
2018-02-14T08:09:04.909Z,43.99
2018-02-14T08:10:04.907Z,44.27
2018-02-14T08:11:04.905Z,44.56
2018-02-14T08:12:04.903Z,45.12
2018-02-14T08:13:04.902Z,45.50
2018-02-14T08:14:04.899Z,46.23
2018-02-14T08:15:04.899Z,47.75
2018-02-14T08:16:04.897Z,48.79
2018-02-14T08:17:04.896Z,49.26
2018-02-14T08:18:04.891Z,49.57
2018-02-14T08:19:04.890Z,48.82
2018-02-14T08:20:04.890Z,46.66
2018-02-14T08:21:04.888Z,45.24
2018-02-14T08:22:04.890Z,44.13
2018-02-14T08:23:04.888Z,42.73
2018-02-14T08:24:04.888Z,41.31
2018-02-14T08:25:04.892Z,40.55
2018-02-14T08:26:04.898Z,39.90
2018-02-14T08:27:04.890Z,38.77
2018-02-14T08:28:04.892Z,38.09
2018-02-14T08:29:04.896Z,38.73
2018-02-14T08:30:04.897Z,40.06
2018-02-14T08:31:04.897Z,41.17
2018-02-14T08:32:04.897Z,42.59
2018-02-14T08:33:04.898Z,44.56
2018-02-14T08:34:04.897Z,45.22
2018-02-14T08:35:04.899Z,45.60
2018-02-14T08:36:04.899Z,45.98
2018-02-14T08:37:04.899Z,45.88
2018-02-14T08:38:04.901Z,46.33
2018-02-14T08:39:04.899Z,46.80
2018-02-14T08:40:04.898Z,48.10
2018-02-14T08:41:04.898Z,49.14
2018-02-14T08:42:04.895Z,50.75
2018-02-14T08:43:04.894Z,50.96
2018-02-14T08:44:04.892Z,50.30
2018-02-14T08:45:04.890Z,50.49
2018-02-14T08:46:04.886Z,49.64
2018-02-14T08:47:04.887Z,49.01
2018-02-14T08:48:04.883Z,48.34
2018-02-14T08:49:04.883Z,46.83
2018-02-14T08:50:04.879Z,46.55
2018-02-14T08:51:04.879Z,44.86
2018-02-14T08:52:04.878Z,44.01
2018-02-14T08:53:04.876Z,44.58
2018-02-14T08:54:04.873Z,42.52
2018-02-14T08:55:04.872Z,41.02
2018-02-14T08:56:04.873Z,39.70
2018-02-14T08:57:04.871Z,38.75
2018-02-14T08:58:04.871Z,38.37
2018-02-14T08:59:04.869Z,38.26
2018-02-14T09:00:04.868Z,38.82
2018-02-14T09:01:04.868Z,39.47
2018-02-14T09:02:04.868Z,41.27
2018-02-14T09:03:04.865Z,43.07
2018-02-14T09:04:04.864Z,42.30
2018-02-14T09:05:04.869Z,42.02
2018-02-14T09:06:04.862Z,41.27
2018-02-14T09:07:04.860Z,42.02
2018-02-14T09:08:04.868Z,42.30
2018-02-14T09:09:04.857Z,43.14
2018-02-14T09:10:04.855Z,43.61
2018-02-14T09:11:04.853Z,45.29
2018-02-14T09:12:04.851Z,46.71
2018-02-14T09:13:04.848Z,47.66
2018-02-14T09:14:04.846Z,47.85
2018-02-14T09:15:04.842Z,47.47
2018-02-14T09:16:04.838Z,48.39
2018-02-14T09:17:04.836Z,49.43
2018-02-14T09:18:04.831Z,50.46
2018-02-14T09:19:04.826Z,51.50
2018-02-14T09:20:04.822Z,51.25
2018-02-14T09:21:04.818Z,49.64
2018-02-14T09:22:04.813Z,48.15
2018-02-14T09:23:04.808Z,47.58
2018-02-14T09:24:04.804Z,47.87
2018-02-14T09:25:04.818Z,47.02
2018-02-14T09:26:04.794Z,45.79
2018-02-14T09:27:04.791Z,45.79
2018-02-14T09:28:04.788Z,45.98
2018-02-14T09:29:04.784Z,46.07
2018-02-14T09:30:04.782Z,46.00
2018-02-14T09:31:04.776Z,45.07
2018-02-14T09:32:04.774Z,44.22
2018-02-14T09:33:04.772Z,43.11
2018-02-14T09:34:04.770Z,41.50
2018-02-14T09:35:04.767Z,41.42
2018-02-14T09:36:04.766Z,39.90
2018-02-14T09:37:04.766Z,40.45
2018-02-14T09:38:04.764Z,41.61
2018-02-14T09:39:04.764Z,41.80
2018-02-14T09:40:04.764Z,40.85
2018-02-14T09:41:04.765Z,39.36
2018-02-14T09:42:04.765Z,37.57
2018-02-14T09:43:04.766Z,36.82
2018-02-14T09:44:04.767Z,36.80
2018-02-14T09:45:04.769Z,38.01
2018-02-14T09:46:04.768Z,38.58
2018-02-14T09:47:04.770Z,38.69
2018-02-14T09:48:04.772Z,37.84
2018-02-14T09:49:04.774Z,38.39
2018-02-14T09:50:04.774Z,40.19
2018-02-14T09:51:04.777Z,42.08
2018-02-14T09:52:04.779Z,42.66
2018-02-14T09:53:04.781Z,41.99
2018-02-14T09:54:04.779Z,41.42
2018-02-14T09:55:04.782Z,40.83
2018-02-14T09:56:04.783Z,42.44
2018-02-14T09:57:04.785Z,43.30
2018-02-14T09:58:04.785Z,42.25
2018-02-14T09:59:04.786Z,41.50
2018-02-14T10:00:04.822Z,42.73
2018-02-14T10:01:04.790Z,44.15
2018-02-14T10:02:04.789Z,44.91
2018-02-14T10:03:04.790Z,44.15
2018-02-14T10:04:04.791Z,43.79
2018-02-14T10:05:04.793Z,43.41
2018-02-14T10:06:04.792Z,42.37
2018-02-14T10:07:04.793Z,42.68
2018-02-14T10:08:04.794Z,42.49
2018-02-14T10:09:04.795Z,42.27
2018-02-14T10:10:04.795Z,41.24
2018-02-14T10:11:04.797Z,41.99
2018-02-14T10:12:04.797Z,41.05
2018-02-14T10:13:04.800Z,40.57
2018-02-14T10:14:04.798Z,42.08
2018-02-14T10:15:04.800Z,42.56
2018-02-14T10:16:04.801Z,43.41
2018-02-14T10:17:04.802Z,43.24
2018-02-14T10:18:04.815Z,42.20
2018-02-14T10:19:04.806Z,41.80
2018-02-14T10:20:04.806Z,42.85
2018-02-14T10:21:04.807Z,44.57
2018-02-14T10:22:04.807Z,43.27
2018-02-14T10:23:04.809Z,43.27
2018-02-14T10:24:04.810Z,41.18
2018-02-14T10:25:04.812Z,40.63
2018-02-14T10:26:04.814Z,40.34
2018-02-14T10:27:04.817Z,39.78
2018-02-14T10:28:04.819Z,38.28
2018-02-14T10:29:04.823Z,37.52
2018-02-14T10:30:04.822Z,36.47
2018-02-14T10:31:04.828Z,36.00
2018-02-14T10:32:04.831Z,35.24
2018-02-14T10:33:04.834Z,34.57
2018-02-14T10:34:04.837Z,36.00
2018-02-14T10:35:04.859Z,37.42
2018-02-14T10:36:04.847Z,37.99
2018-02-14T10:37:04.850Z,36.55
2018-02-14T10:38:04.854Z,35.69
2018-02-14T10:39:04.858Z,35.50
2018-02-14T10:40:04.866Z,35.58
2018-02-14T10:41:04.868Z,36.53
2018-02-14T10:42:04.871Z,36.70
2018-02-14T10:43:04.876Z,37.65
2018-02-14T10:44:04.882Z,39.18
2018-02-14T10:45:04.886Z,39.85
2018-02-14T10:46:04.889Z,39.97
2018-02-14T10:47:04.893Z,38.65
2018-02-14T10:48:04.898Z,37.92
2018-02-14T10:49:04.903Z,36.89
2018-02-14T10:50:04.906Z,35.67
2018-02-14T10:51:04.911Z,35.58
2018-02-14T10:52:04.917Z,33.97
2018-02-14T10:53:04.921Z,33.88
2018-02-14T10:54:04.925Z,33.50
2018-02-14T10:55:04.931Z,33.40
2018-02-14T10:56:04.935Z,33.58
2018-02-14T10:57:04.941Z,32.80
2018-02-14T10:58:04.945Z,33.64
2018-02-14T10:59:04.950Z,33.62
2018-02-14T11:00:04.957Z,33.91
2018-02-14T11:01:04.962Z,34.67
2018-02-14T11:02:04.968Z,36.36
2018-02-14T11:03:04.973Z,36.55
2018-02-14T11:04:04.978Z,37.04
2018-02-14T11:05:04.983Z,37.04
2018-02-14T11:06:04.988Z,37.04
2018-02-14T11:07:04.991Z,37.61
2018-02-14T11:08:04.997Z,36.76
2018-02-14T11:09:05.004Z,37.82
2018-02-14T11:10:05.007Z,36.77
2018-02-14T11:11:05.041Z,37.73
2018-02-14T11:12:05.017Z,38.01
2018-02-14T11:13:05.023Z,38.29
2018-02-14T11:14:05.027Z,37.82
2018-02-14T11:15:05.034Z,35.61
2018-02-14T11:16:05.037Z,35.61
2018-02-14T11:17:05.042Z,36.36
2018-02-14T11:18:05.047Z,36.63
2018-02-14T11:19:05.051Z,37.67
2018-02-14T11:20:05.056Z,37.76
2018-02-14T11:21:05.061Z,38.50
2018-02-14T11:22:05.068Z,39.07
2018-02-14T11:23:05.068Z,39.54
2018-02-14T11:24:05.077Z,40.02
2018-02-14T11:25:05.078Z,40.31
2018-02-14T11:26:05.078Z,40.69
2018-02-14T11:27:05.081Z,41.92
2018-02-14T11:28:05.086Z,42.03
2018-02-14T11:29:05.087Z,41.08
2018-02-14T11:30:05.089Z,43.27
2018-02-14T11:31:05.092Z,43.36
2018-02-14T11:32:05.094Z,42.70
2018-02-14T11:33:05.096Z,43.36
2018-02-14T11:34:05.096Z,40.04
2018-02-14T11:35:05.099Z,39.66
2018-02-14T11:36:05.102Z,39.66
2018-02-14T11:37:05.102Z,39.85
2018-02-14T11:38:05.104Z,40.70
2018-02-14T11:39:05.105Z,41.37
2018-02-14T11:40:05.109Z,41.27
2018-02-14T11:41:05.109Z,41.94
2018-02-14T11:42:05.108Z,42.03
2018-02-14T11:43:05.145Z,42.05
2018-02-14T11:44:05.112Z,39.59
2018-02-14T11:45:05.115Z,37.78
2018-02-14T11:46:05.115Z,37.99
2018-02-14T11:47:05.117Z,37.13
2018-02-14T11:48:05.119Z,37.71
2018-02-14T11:49:05.121Z,37.54
2018-02-14T11:50:05.124Z,36.94
2018-02-14T11:51:05.124Z,36.66
2018-02-14T11:52:05.126Z,36.74
2018-02-14T11:53:05.127Z,37.69
2018-02-14T11:54:05.130Z,37.59
2018-02-14T11:55:05.139Z,40.25
2018-02-14T11:56:05.133Z,39.01
2018-02-14T11:57:05.134Z,38.71
2018-02-14T11:58:05.135Z,37.57
2018-02-14T11:59:05.136Z,39.00
2018-02-14T12:00:05.138Z,40.61
2018-02-14T12:01:05.140Z,41.85
2018-02-14T12:02:05.140Z,42.41
2018-02-14T12:03:05.140Z,41.37
2018-02-14T12:04:05.142Z,39.92
2018-02-14T12:05:05.144Z,39.92
2018-02-14T12:06:05.147Z,40.19
2018-02-14T12:07:05.145Z,41.05
2018-02-14T12:08:05.147Z,42.08
2018-02-14T12:09:05.152Z,42.08
2018-02-14T12:10:05.151Z,42.66
2018-02-14T12:11:05.148Z,42.94
2018-02-14T12:12:05.149Z,43.41
2018-02-14T12:13:05.149Z,43.23
2018-02-14T12:14:05.150Z,43.60
2018-02-14T12:15:05.150Z,43.30
2018-02-14T12:16:05.150Z,43.49
2018-02-14T12:17:05.154Z,44.84
2018-02-14T12:18:05.150Z,44.46
2018-02-14T12:19:05.151Z,44.55
2018-02-14T12:20:05.150Z,45.12
2018-02-14T12:21:05.152Z,44.55
2018-02-14T12:22:05.153Z,44.17
2018-02-14T12:23:05.151Z,45.31
2018-02-14T12:24:05.150Z,45.40
2018-02-14T12:25:05.150Z,44.93
2018-02-14T12:26:05.149Z,45.03
2018-02-14T12:27:05.388Z,45.97
2018-02-14T12:28:05.148Z,46.07
2018-02-14T12:29:05.149Z,45.19
2018-02-14T12:30:05.148Z,45.57
2018-02-14T12:31:05.147Z,45.57
2018-02-14T12:32:05.147Z,45.38
2018-02-14T12:33:05.146Z,45.00
2018-02-14T12:34:05.143Z,45.86
2018-02-14T12:35:05.143Z,45.57
2018-02-14T12:36:05.143Z,45.86
2018-02-14T12:37:05.141Z,45.86
2018-02-14T12:38:05.141Z,45.29
2018-02-14T12:39:05.139Z,45.76
2018-02-14T12:40:05.138Z,45.38
2018-02-14T12:41:05.138Z,45.29
2018-02-14T12:42:05.136Z,44.53
2018-02-14T12:43:05.135Z,44.55
2018-02-14T12:44:05.134Z,44.55
2018-02-14T12:45:05.134Z,45.24
2018-02-14T12:46:05.133Z,45.81
2018-02-14T12:47:05.130Z,45.07
2018-02-14T12:48:05.132Z,41.27
2018-02-14T12:49:05.130Z,39.57
2018-02-14T12:50:05.128Z,38.69
2018-02-14T12:51:05.128Z,39.17
2018-02-14T12:52:05.161Z,40.97
2018-02-14T12:53:05.129Z,39.45